Terminal Aerodrome Forecast
Issued by NWS

Home | Current Version | Previous Version | Text Only | Print | Product List | Glossary On
Versions: 1 2 3 4 5 6 7 8 9 10 11 12 13 14 15 16 17 18 19 20 21 22 23 24 25 26
000
FTUS45 KSLC 271137
TAFPVU
TAF
KPVU 271137Z 2712/2812 VRB04KT 5SM HZ FEW100 SCT200
     FM271800 19008KT P6SM -SHRA SCT040 BKN050
     FM272000 19008KT P6SM BKN070
     FM280300 15004KT P6SM VCSH BKN050
      AMD LTD TO CLD VIS AND WIND=

USA.gov is the U.S. government's official web portal to all federal, state and local government web resources and services.